Time;durP1;ratioP1;P1;durP2;ratioP2;P2;SDS_P1;SDS_P2;PMS_P1;PMS_P2;Temp;Humidity;BMP_temperature;BMP_pressure;BME280_temperature;BME280_humidity;BME280_pressure;Samples;Min_cycle;Max_cycle;Signal;HPM_P1;HPM_P2
2022/04/03 00:01:23;;;;;;;6.47;3.00;;;;;;;;;;4950615;28;20030;-85
2022/04/03 00:03:49;;;;;;;6.85;3.05;;;;;;;;;;4947007;28;20038;-83
2022/04/03 00:06:14;;;;;;;6.22;2.95;;;;;;;;;;4962365;28;20034;-85
2022/04/03 00:08:40;;;;;;;5.47;3.25;;;;;;;;;;4952416;28;20031;-82
2022/04/03 00:11:05;;;;;;;5.50;2.97;;;;;;;;;;4946732;28;20114;-83
2022/04/03 00:13:31;;;;;;;5.57;3.17;;;;;;;;;;4948439;28;20086;-86
2022/04/03 00:15:56;;;;;;;4.95;2.72;;;;;;;;;;4950126;28;20403;-83
2022/04/03 00:18:22;;;;;;;10.20;3.13;;;;;;;;;;4947593;28;20077;-84
2022/04/03 00:20:47;;;;;;;7.65;3.35;;;;;;;;;;4944804;28;20031;-85
2022/04/03 00:23:13;;;;;;;7.05;3.25;;;;;;;;;;4947478;28;20031;-85
2022/04/03 00:25:39;;;;;;;7.53;3.22;;;;;;;;;;4947949;28;20019;-84
2022/04/03 00:28:04;;;;;;;5.75;2.90;;;;;;;;;;4947314;28;20090;-85
2022/04/03 00:30:30;;;;;;;6.07;3.30;;;;;;;;;;4951227;28;20048;-82
2022/04/03 00:32:55;;;;;;;6.07;3.42;;;;;;;;;;4965547;28;20455;-82
2022/04/03 00:35:21;;;;;;;6.85;3.30;;;;;;;;;;4960534;28;20550;-86
2022/04/03 00:37:46;;;;;;;6.88;3.33;;;;;;;;;;4948937;28;20035;-82
2022/04/03 00:40:13;;;;;;;5.95;3.30;;;;;;;;;;4945964;28;20035;-85
2022/04/03 00:42:39;;;;;;;5.95;3.33;;;;;;;;;;4950027;29;20023;-83
2022/04/03 00:45:06;;;;;;;6.40;2.95;;;;;;;;;;4946842;28;20527;-86
2022/04/03 00:47:32;;;;;;;5.30;2.92;;;;;;;;;;4949401;28;20047;-82
2022/04/03 00:49:59;;;;;;;5.45;2.70;;;;;;;;;;4949355;28;20527;-82
2022/04/03 00:52:25;;;;;;;5.95;2.95;;;;;;;;;;4944342;28;20030;-85
2022/04/03 00:54:51;;;;;;;6.10;2.63;;;;;;;;;;4945064;29;20450;-83
2022/04/03 00:57:18;;;;;;;4.82;2.78;;;;;;;;;;4963149;28;20035;-84
2022/04/03 00:59:44;;;;;;;6.63;2.97;;;;;;;;;;4949801;28;20039;-83
2022/04/03 01:02:10;;;;;;;4.93;2.60;;;;;;;;;;4947177;28;20094;-86
2022/04/03 01:04:39;;;;;;;5.40;2.80;;;;;;;;;;4945117;28;20070;-83
2022/04/03 01:07:05;;;;;;;5.50;2.80;;;;;;;;;;4946159;28;20055;-83
2022/04/03 01:09:31;;;;;;;5.15;2.90;;;;;;;;;;4946538;29;20384;-86
2022/04/03 01:11:56;;;;;;;6.53;3.30;;;;;;;;;;4947811;28;20142;-83
2022/04/03 01:14:41;;;;;;;6.57;2.70;;;;;;;;;;4949967;29;20479;-86
2022/04/03 01:17:10;;;;;;;4.80;2.80;;;;;;;;;;4961412;28;20458;-82
2022/04/03 01:19:36;;;;;;;6.18;2.88;;;;;;;;;;4946388;29;20035;-85
2022/04/03 01:22:02;;;;;;;6.85;3.00;;;;;;;;;;4945878;29;20031;-82
2022/04/03 01:24:27;;;;;;;6.47;2.95;;;;;;;;;;4946583;29;20483;-82
2022/04/03 01:26:53;;;;;;;4.82;3.03;;;;;;;;;;4946367;29;20102;-84
2022/04/03 01:29:19;;;;;;;5.00;2.90;;;;;;;;;;4944576;29;20554;-85
2022/04/03 01:31:46;;;;;;;4.50;2.83;;;;;;;;;;4943250;29;20147;-83
2022/04/03 01:34:13;;;;;;;6.15;3.25;;;;;;;;;;4944196;28;20055;-84
2022/04/03 01:36:38;;;;;;;6.07;3.15;;;;;;;;;;4947332;28;20117;-82
2022/04/03 01:39:03;;;;;;;5.20;3.00;;;;;;;;;;4944688;28;20563;-83
2022/04/03 01:41:29;;;;;;;6.22;3.15;;;;;;;;;;4946411;28;20034;-81
2022/04/03 01:43:54;;;;;;;5.82;2.85;;;;;;;;;;4942437;29;20427;-85
2022/04/03 01:46:19;;;;;;;6.53;3.15;;;;;;;;;;4948509;28;20031;-81
2022/04/03 01:48:45;;;;;;;4.68;2.95;;;;;;;;;;4949267;28;20038;-83
2022/04/03 01:51:10;;;;;;;4.00;2.90;;;;;;;;;;4947061;28;20118;-84
2022/04/03 01:53:36;;;;;;;6.10;3.22;;;;;;;;;;4946750;28;20463;-84
2022/04/03 01:56:05;;;;;;;6.57;3.28;;;;;;;;;;4949933;29;20023;-84
2022/04/03 01:58:31;;;;;;;5.72;3.30;;;;;;;;;;4946329;28;20067;-85
2022/04/03 02:00:57;;;;;;;7.68;3.38;;;;;;;;;;4947724;28;20509;-84
2022/04/03 02:03:23;;;;;;;6.68;2.90;;;;;;;;;;4951511;28;20121;-83
2022/04/03 02:05:48;;;;;;;6.35;3.22;;;;;;;;;;4952639;28;20495;-81
2022/04/03 02:08:14;;;;;;;8.52;3.13;;;;;;;;;;4948639;28;20067;-82
2022/04/03 02:10:39;;;;;;;7.28;3.28;;;;;;;;;;4950410;28;20114;-83
2022/04/03 02:13:05;;;;;;;9.27;2.97;;;;;;;;;;4952428;29;20431;-82
2022/04/03 02:15:30;;;;;;;5.32;2.85;;;;;;;;;;4948523;28;20027;-85
2022/04/03 02:17:56;;;;;;;7.05;3.28;;;;;;;;;;4950223;28;20046;-82
2022/04/03 02:20:21;;;;;;;6.22;3.05;;;;;;;;;;4947942;29;20063;-85
2022/04/03 02:22:47;;;;;;;6.40;3.30;;;;;;;;;;4950027;28;20522;-84
2022/04/03 02:25:13;;;;;;;6.30;3.33;;;;;;;;;;4949935;28;20023;-82
2022/04/03 02:27:43;;;;;;;6.93;3.17;;;;;;;;;;4946255;28;20483;-84
2022/04/03 02:30:10;;;;;;;6.35;3.35;;;;;;;;;;4950384;28;20023;-83
2022/04/03 02:32:37;;;;;;;6.82;3.33;;;;;;;;;;4949947;28;20043;-83
2022/04/03 02:35:04;;;;;;;6.65;3.17;;;;;;;;;;4949259;28;20027;-84
2022/04/03 02:37:29;;;;;;;8.10;3.20;;;;;;;;;;4949250;28;20121;-81
2022/04/03 02:39:55;;;;;;;5.13;2.88;;;;;;;;;;4948744;28;20027;-81
2022/04/03 02:42:20;;;;;;;8.63;3.40;;;;;;;;;;4947171;28;20049;-83
2022/04/03 02:44:46;;;;;;;5.68;3.25;;;;;;;;;;4952319;28;20431;-82
2022/04/03 02:47:11;;;;;;;5.60;3.10;;;;;;;;;;4951995;28;20058;-81
2022/04/03 02:49:37;;;;;;;9.95;3.08;;;;;;;;;;4950463;29;20040;-82
2022/04/03 02:52:03;;;;;;;6.05;3.33;;;;;;;;;;4950985;28;20055;-81
2022/04/03 02:54:29;;;;;;;5.80;3.65;;;;;;;;;;4945351;28;20411;-81
2022/04/03 02:56:54;;;;;;;5.60;3.03;;;;;;;;;;4948303;28;20038;-81
2022/04/03 02:59:20;;;;;;;6.30;3.55;;;;;;;;;;4948967;28;20031;-83
2022/04/03 03:01:46;;;;;;;6.85;3.45;;;;;;;;;;4951216;28;20150;-81
2022/04/03 03:04:11;;;;;;;8.35;3.63;;;;;;;;;;4949603;28;20424;-81
2022/04/03 03:06:36;;;;;;;6.18;4.00;;;;;;;;;;4961618;28;20019;-84
2022/04/03 03:09:02;;;;;;;7.30;3.63;;;;;;;;;;4950344;28;20083;-84
2022/04/03 03:11:28;;;;;;;6.50;3.67;;;;;;;;;;4949791;28;20070;-83
2022/04/03 03:13:54;;;;;;;5.95;3.53;;;;;;;;;;4950573;28;20035;-82
2022/04/03 03:16:19;;;;;;;5.63;3.40;;;;;;;;;;4949524;28;20031;-81
2022/04/03 03:18:44;;;;;;;6.13;4.07;;;;;;;;;;4950519;28;20495;-81
2022/04/03 03:21:09;;;;;;;7.93;3.88;;;;;;;;;;4948242;28;20039;-82
2022/04/03 03:23:35;;;;;;;7.00;4.00;;;;;;;;;;4949099;28;20031;-81
2022/04/03 03:26:00;;;;;;;8.40;4.35;;;;;;;;;;4949786;28;20023;-82
2022/04/03 03:28:26;;;;;;;8.38;4.20;;;;;;;;;;4948800;28;20046;-81
2022/04/03 03:30:51;;;;;;;7.25;4.15;;;;;;;;;;4948617;28;20411;-83
2022/04/03 03:33:16;;;;;;;7.75;4.40;;;;;;;;;;4947676;28;20027;-82
2022/04/03 03:35:42;;;;;;;6.13;4.00;;;;;;;;;;4949764;28;20113;-81
2022/04/03 03:38:08;;;;;;;10.10;4.72;;;;;;;;;;4950216;29;20034;-84
2022/04/03 03:40:38;;;;;;;9.20;4.53;;;;;;;;;;4950647;29;20676;-82
2022/04/03 03:43:04;;;;;;;7.22;4.43;;;;;;;;;;4943935;28;20027;-81
2022/04/03 03:45:29;;;;;;;6.18;4.22;;;;;;;;;;4942919;28;20027;-81
2022/04/03 03:47:57;;;;;;;7.28;4.63;;;;;;;;;;4947746;28;20053;-82
2022/04/03 03:50:23;;;;;;;9.93;4.70;;;;;;;;;;4947233;28;20039;-82
2022/04/03 03:52:48;;;;;;;8.02;4.00;;;;;;;;;;4948128;28;20029;-82
2022/04/03 03:55:14;;;;;;;7.13;4.63;;;;;;;;;;4946926;29;20122;-82
2022/04/03 03:57:39;;;;;;;8.48;4.95;;;;;;;;;;4966205;28;20034;-84
2022/04/03 04:00:09;;;;;;;7.50;4.35;;;;;;;;;;4950166;28;20023;-82
2022/04/03 04:02:34;;;;;;;6.43;4.05;;;;;;;;;;4949842;29;20065;-82
2022/04/03 04:04:59;;;;;;;7.40;4.30;;;;;;;;;;4947007;28;20062;-82
2022/04/03 04:07:25;;;;;;;7.43;4.32;;;;;;;;;;4951074;28;20109;-84
2022/04/03 04:09:50;;;;;;;7.75;4.40;;;;;;;;;;4948744;28;20035;-84
2022/04/03 04:12:15;;;;;;;7.93;4.50;;;;;;;;;;4946901;28;20027;-83
2022/04/03 04:14:40;;;;;;;8.90;4.47;;;;;;;;;;4947651;28;20427;-83
2022/04/03 04:17:09;;;;;;;7.40;4.90;;;;;;;;;;4949668;28;20027;-82
2022/04/03 04:19:35;;;;;;;7.63;4.68;;;;;;;;;;4945882;28;20031;-82
2022/04/03 04:22:01;;;;;;;8.27;5.32;;;;;;;;;;4945275;28;20035;-82
2022/04/03 04:24:26;;;;;;;8.82;5.38;;;;;;;;;;4949116;28;20050;-82
2022/04/03 04:26:51;;;;;;;11.68;5.63;;;;;;;;;;4948217;28;20539;-82
2022/04/03 04:29:17;;;;;;;7.85;5.55;;;;;;;;;;4949068;28;20034;-83
2022/04/03 04:31:42;;;;;;;7.13;5.28;;;;;;;;;;4948440;28;20082;-82
2022/04/03 04:34:07;;;;;;;9.00;5.80;;;;;;;;;;4948190;28;20082;-84
2022/04/03 04:36:33;;;;;;;11.30;6.15;;;;;;;;;;4946927;28;20023;-84
2022/04/03 04:38:58;;;;;;;10.05;6.93;;;;;;;;;;4947726;28;20051;-84
2022/04/03 04:41:24;;;;;;;14.20;7.55;;;;;;;;;;4950175;28;20023;-85
2022/04/03 04:43:49;;;;;;;13.93;7.40;;;;;;;;;;4950633;28;20031;-81
2022/04/03 04:46:14;;;;;;;11.77;7.93;;;;;;;;;;4959875;28;20392;-84
2022/04/03 04:48:40;;;;;;;15.25;9.02;;;;;;;;;;4947333;28;20038;-83
2022/04/03 04:51:05;;;;;;;12.30;8.73;;;;;;;;;;4949974;29;20031;-81
2022/04/03 04:53:30;;;;;;;13.45;9.18;;;;;;;;;;4945805;28;20472;-84
2022/04/03 04:55:56;;;;;;;15.43;10.05;;;;;;;;;;4956870;28;20036;-82
2022/04/03 04:58:21;;;;;;;16.55;9.98;;;;;;;;;;4945152;28;20027;-82
2022/04/03 05:00:46;;;;;;;16.80;9.52;;;;;;;;;;4948769;28;20019;-83
2022/04/03 05:03:12;;;;;;;15.32;9.65;;;;;;;;;;4949074;29;20150;-84
2022/04/03 05:05:38;;;;;;;16.08;9.65;;;;;;;;;;4948207;28;20042;-82
2022/04/03 05:08:04;;;;;;;14.90;10.00;;;;;;;;;;4947195;29;20039;-82
2022/04/03 05:10:31;;;;;;;15.90;10.00;;;;;;;;;;4946208;28;22479;-84
2022/04/03 05:12:57;;;;;;;15.88;10.38;;;;;;;;;;4947982;28;20050;-82
2022/04/03 05:15:22;;;;;;;16.63;9.68;;;;;;;;;;4949054;28;20031;-81
2022/04/03 05:17:48;;;;;;;14.95;9.50;;;;;;;;;;4948780;28;20046;-83
2022/04/03 05:20:15;;;;;;;16.45;9.43;;;;;;;;;;4945374;28;20023;-84
2022/04/03 05:22:41;;;;;;;12.73;8.73;;;;;;;;;;4946683;28;20487;-83
2022/04/03 05:25:11;;;;;;;14.48;8.57;;;;;;;;;;4946774;28;20055;-82
2022/04/03 05:27:38;;;;;;;14.50;8.48;;;;;;;;;;4944890;28;20510;-82
2022/04/03 05:30:04;;;;;;;13.70;8.48;;;;;;;;;;4959809;28;20340;-82
2022/04/03 05:32:31;;;;;;;10.85;7.50;;;;;;;;;;4963124;28;20027;-83
2022/04/03 05:34:57;;;;;;;10.23;7.47;;;;;;;;;;4946722;28;20110;-82
2022/04/03 05:37:23;;;;;;;11.38;7.20;;;;;;;;;;4950557;28;20061;-83
2022/04/03 05:39:49;;;;;;;12.20;6.65;;;;;;;;;;4950518;28;20511;-82
2022/04/03 05:42:15;;;;;;;8.90;6.47;;;;;;;;;;4948527;28;20089;-84
2022/04/03 05:44:40;;;;;;;11.43;6.70;;;;;;;;;;4952098;28;20067;-83
2022/04/03 05:47:06;;;;;;;9.05;6.47;;;;;;;;;;4949062;28;20119;-84
2022/04/03 05:49:31;;;;;;;10.10;6.80;;;;;;;;;;4950425;28;20028;-83
2022/04/03 05:51:57;;;;;;;12.77;7.50;;;;;;;;;;4949567;28;20023;-82
2022/04/03 05:54:22;;;;;;;10.75;7.28;;;;;;;;;;4948855;28;20035;-83
2022/04/03 05:56:48;;;;;;;10.13;6.60;;;;;;;;;;4965435;28;20066;-82
2022/04/03 05:59:13;;;;;;;10.45;6.88;;;;;;;;;;4951725;28;20038;-82
2022/04/03 06:01:38;;;;;;;10.55;7.30;;;;;;;;;;4949830;28;20082;-84
2022/04/03 06:04:04;;;;;;;11.77;6.78;;;;;;;;;;4949761;28;20123;-84
2022/04/03 06:06:29;;;;;;;10.85;6.90;;;;;;;;;;4949507;28;20502;-82
2022/04/03 06:08:54;;;;;;;9.80;6.72;;;;;;;;;;4950458;28;20027;-84
2022/04/03 06:11:20;;;;;;;11.52;6.75;;;;;;;;;;4952577;28;20098;-83
2022/04/03 06:13:45;;;;;;;11.07;7.18;;;;;;;;;;4953250;28;20054;-81
2022/04/03 06:16:10;;;;;;;12.00;7.00;;;;;;;;;;4947766;28;20118;-83
2022/04/03 06:18:36;;;;;;;9.38;6.40;;;;;;;;;;4949033;28;20031;-84
2022/04/03 06:21:01;;;;;;;10.52;5.93;;;;;;;;;;4948513;28;20039;-84
2022/04/03 06:23:26;;;;;;;11.90;6.10;;;;;;;;;;4945478;29;20027;-81
2022/04/03 06:25:54;;;;;;;8.50;5.60;;;;;;;;;;4949355;28;21962;-83
2022/04/03 06:28:19;;;;;;;9.23;5.95;;;;;;;;;;4951543;28;20114;-82
2022/04/03 06:30:46;;;;;;;8.88;5.60;;;;;;;;;;4950691;28;20114;-81
2022/04/03 06:33:12;;;;;;;10.73;5.75;;;;;;;;;;4952032;28;20023;-84
2022/04/03 06:35:38;;;;;;;11.73;5.60;;;;;;;;;;4949563;28;20447;-82
2022/04/03 06:38:04;;;;;;;9.70;5.70;;;;;;;;;;4950536;29;20036;-84
2022/04/03 06:40:34;;;;;;;9.75;5.20;;;;;;;;;;4950371;28;20035;-84
2022/04/03 06:42:59;;;;;;;11.02;5.72;;;;;;;;;;4951160;28;20039;-82
2022/04/03 06:45:26;;;;;;;7.95;4.93;;;;;;;;;;4942704;29;20246;-83
2022/04/03 06:47:51;;;;;;;8.80;5.55;;;;;;;;;;4946302;28;20046;-83
2022/04/03 06:50:17;;;;;;;8.13;5.45;;;;;;;;;;4948386;28;20027;-83
2022/04/03 06:52:43;;;;;;;8.43;5.20;;;;;;;;;;4943293;28;20082;-84
2022/04/03 06:55:09;;;;;;;12.27;5.22;;;;;;;;;;4943840;28;20086;-84
2022/04/03 06:57:34;;;;;;;9.27;6.10;;;;;;;;;;4945855;28;20106;-81
2022/04/03 06:59:59;;;;;;;10.05;5.80;;;;;;;;;;4944195;28;20045;-85
2022/04/03 07:02:25;;;;;;;8.18;5.70;;;;;;;;;;4944277;28;20114;-82
2022/04/03 07:04:50;;;;;;;8.23;5.80;;;;;;;;;;4946961;28;20034;-82
2022/04/03 07:07:23;;;;;;;12.23;6.78;;;;;;;;;;4945263;28;20101;-84
2022/04/03 07:09:48;;;;;;;9.80;6.38;;;;;;;;;;4945177;28;20506;-85
2022/04/03 07:12:14;;;;;;;10.15;6.28;;;;;;;;;;4944282;28;20030;-82
2022/04/03 07:14:40;;;;;;;9.30;6.43;;;;;;;;;;4947887;28;20030;-85
2022/04/03 07:17:05;;;;;;;9.60;6.80;;;;;;;;;;4944847;28;20027;-85
2022/04/03 07:19:31;;;;;;;9.30;6.90;;;;;;;;;;4944862;29;20034;-85
2022/04/03 07:21:57;;;;;;;11.85;7.00;;;;;;;;;;4947339;28;20122;-84
2022/04/03 07:24:23;;;;;;;10.75;6.88;;;;;;;;;;4945249;28;20502;-83
2022/04/03 07:26:48;;;;;;;13.00;7.70;;;;;;;;;;4946049;29;20031;-84
2022/04/03 07:29:14;;;;;;;11.23;8.40;;;;;;;;;;4946594;28;20134;-85
2022/04/03 07:31:39;;;;;;;11.52;7.00;;;;;;;;;;4944295;28;20081;-85
2022/04/03 07:34:04;;;;;;;9.00;5.88;;;;;;;;;;4945079;28;20086;-83
2022/04/03 07:36:30;;;;;;;11.55;6.78;;;;;;;;;;4946410;28;20082;-83
2022/04/03 07:38:56;;;;;;;10.93;6.75;;;;;;;;;;4945042;28;20492;-85
2022/04/03 07:41:21;;;;;;;10.85;6.13;;;;;;;;;;4946622;28;20027;-81
2022/04/03 07:43:47;;;;;;;9.05;5.45;;;;;;;;;;4945785;28;20035;-84
2022/04/03 07:46:16;;;;;;;9.95;5.55;;;;;;;;;;4946656;28;20031;-84
2022/04/03 07:48:42;;;;;;;7.22;4.60;;;;;;;;;;4944640;28;20458;-85
2022/04/03 07:51:08;;;;;;;8.65;5.65;;;;;;;;;;4945665;28;20035;-85
2022/04/03 07:53:33;;;;;;;7.10;4.68;;;;;;;;;;4944351;29;20458;-82
2022/04/03 07:55:58;;;;;;;8.55;4.35;;;;;;;;;;4942414;28;20027;-85
2022/04/03 07:58:24;;;;;;;9.15;3.80;;;;;;;;;;4943489;28;20075;-82
2022/04/03 08:00:49;;;;;;;6.13;3.90;;;;;;;;;;4945529;28;20115;-85
2022/04/03 08:03:15;;;;;;;5.32;3.25;;;;;;;;;;4943441;28;20392;-85
2022/04/03 08:05:40;;;;;;;4.20;2.30;;;;;;;;;;4942425;28;20593;-83
2022/04/03 08:08:06;;;;;;;8.80;2.70;;;;;;;;;;4945096;28;20053;-85
2022/04/03 08:10:32;;;;;;;5.13;2.53;;;;;;;;;;4945754;29;20137;-85
2022/04/03 08:12:57;;;;;;;5.10;2.30;;;;;;;;;;4947224;28;20026;-84
2022/04/03 08:15:23;;;;;;;5.50;2.45;;;;;;;;;;4943050;28;20033;-82
2022/04/03 08:17:48;;;;;;;3.50;1.90;;;;;;;;;;4945988;28;20027;-83
2022/04/03 08:20:18;;;;;;;4.50;2.20;;;;;;;;;;4945754;28;20569;-85
2022/04/03 08:22:48;;;;;;;4.68;2.00;;;;;;;;;;4945836;28;20039;-85
2022/04/03 08:25:15;;;;;;;4.80;1.90;;;;;;;;;;4941168;28;20023;-84
2022/04/03 08:28:04;;;;;;;3.05;1.67;;;;;;;;;;4943971;28;20059;-86
2022/04/03 08:30:42;;;;;;;5.38;2.28;;;;;;;;;;4944675;28;20043;-87
2022/04/03 08:33:11;;;;;;;3.90;2.42;;;;;;;;;;4943615;28;20052;-84
2022/04/03 08:35:40;;;;;;;6.50;2.40;;;;;;;;;;4943858;29;20054;-87
2022/04/03 08:38:12;;;;;;;6.50;2.50;;;;;;;;;;4944758;28;20578;-87
2022/04/03 08:40:45;;;;;;;3.83;2.30;;;;;;;;;;4943841;28;21851;-87
2022/04/03 08:43:14;;;;;;;5.38;2.20;;;;;;;;;;4942510;29;20039;-87
2022/04/03 08:45:48;;;;;;;4.50;2.33;;;;;;;;;;4941550;29;20031;-84
2022/04/03 08:48:15;;;;;;;5.20;2.40;;;;;;;;;;4944790;29;20599;-83
2022/04/03 08:50:49;;;;;;;6.20;3.90;;;;;;;;;;4944501;29;20042;-85
2022/04/03 08:53:15;;;;;;;6.00;2.67;;;;;;;;;;4947216;29;20499;-85
2022/04/03 08:55:44;;;;;;;5.07;3.22;;;;;;;;;;4945347;29;20031;-83
2022/04/03 08:58:20;;;;;;;5.88;3.33;;;;;;;;;;4947811;29;20031;-89
2022/04/03 09:00:45;;;;;;;4.32;2.40;;;;;;;;;;4942702;29;20028;-85
2022/04/03 09:03:17;;;;;;;5.35;2.53;;;;;;;;;;4942857;29;20588;-87
2022/04/03 09:05:47;;;;;;;5.10;3.00;;;;;;;;;;4940363;28;20023;-83
2022/04/03 09:08:47;;;;;;;4.43;2.63;;;;;;;;;;4943813;29;20027;-90
2022/04/03 09:11:19;;;;;;;3.25;2.10;;;;;;;;;;4947941;28;20138;-86
2022/04/03 09:13:48;;;;;;;5.15;2.70;;;;;;;;;;4951258;28;20488;-89
2022/04/03 09:16:51;;;;;;;4.07;2.40;;;;;;;;;;4950786;28;20035;-88
2022/04/03 09:19:50;;;;;;;4.05;2.15;;;;;;;;;;4952741;28;20046;-89
2022/04/03 09:22:28;;;;;;;3.17;2.08;;;;;;;;;;4948436;28;20039;-86
2022/04/03 09:24:55;;;;;;;3.10;2.13;;;;;;;;;;4953815;28;20058;-84
2022/04/03 09:27:20;;;;;;;3.15;1.90;;;;;;;;;;4952936;28;20058;-93
2022/04/03 09:30:54;;;;;;;3.97;2.17;;;;;;;;;;4955022;29;20024;-84
2022/04/03 09:34:12;;;;;;;;;;;;;;;;;;;;;
2022/04/03 09:37:30;;;;;;;4.38;1.60;;;;;;;;;;4929067;29;20087;-93
2022/04/03 09:40:24;;;;;;;3.92;1.40;;;;;;;;;;4928794;29;20082;-91
2022/04/03 09:43:51;;;;;;;2.88;1.20;;;;;;;;;;4889409;29;20067;-93
2022/04/03 09:46:26;;;;;;;2.70;1.60;;;;;;;;;;4860587;29;20040;-96
2022/04/03 09:48:54;;;;;;;4.20;1.63;;;;;;;;;;4862772;29;20052;-92
2022/04/03 09:51:30;;;;;;;3.22;1.60;;;;;;;;;;4878943;29;20153;-93
2022/04/03 09:54:28;;;;;;;2.33;1.50;;;;;;;;;;4883879;29;20552;-85
2022/04/03 09:57:25;;;;;;;4.25;1.50;;;;;;;;;;4882307;29;20424;-85
2022/04/03 09:59:57;;;;;;;2.97;1.75;;;;;;;;;;4880175;29;20036;-85
2022/04/03 10:02:28;;;;;;;3.40;1.55;;;;;;;;;;4898424;29;20119;-93
2022/04/03 10:05:02;;;;;;;2.70;1.63;;;;;;;;;;4883624;29;20043;-93
2022/04/03 10:07:29;;;;;;;4.63;1.70;;;;;;;;;;4924230;28;20805;-85
2022/04/03 10:10:02;;;;;;;3.22;1.77;;;;;;;;;;4952676;28;20035;-84
2022/04/03 10:12:27;;;;;;;;;;;;;;;;;;4952161;28;20035;-84
2022/04/03 10:15:02;;;;;;;3.20;1.65;;;;;;;;;;4955317;29;19934;-85
2022/04/03 10:17:28;;;;;;;4.13;1.73;;;;;;;;;;4952006;28;20531;-90
2022/04/03 10:19:59;;;;;;;2.95;1.67;;;;;;;;;;4948860;28;20131;-83
2022/04/03 10:25:59;;;;;;;4.25;1.80;;;;;;;;;;4908991;29;20035;-92
2022/04/03 10:28:30;;;;;;;4.75;1.90;;;;;;;;;;4912709;29;20127;-85
2022/04/03 10:34:02;;;;;;;5.38;1.85;;;;;;;;;;4949367;29;20039;-87
2022/04/03 10:36:32;;;;;;;3.95;1.60;;;;;;;;;;4933962;29;20188;-91
2022/04/03 10:39:06;;;;;;;4.97;2.13;;;;;;;;;;4944134;28;20067;-83
2022/04/03 10:47:34;;;;;;;2.80;1.70;;;;;;;;;;4953246;28;20035;-92
2022/04/03 10:50:08;;;;;;;3.40;1.90;;;;;;;;;;4947590;29;20448;-88
2022/04/03 10:55:40;;;;;;;3.20;1.50;;;;;;;;;;4924582;29;20066;-83
2022/04/03 10:58:34;;;;;;;3.00;1.20;;;;;;;;;;4946831;28;20123;-91
2022/04/03 11:01:08;;;;;;;2.72;0.85;;;;;;;;;;4958941;28;20079;-83
2022/04/03 11:03:37;;;;;;;2.60;0.98;;;;;;;;;;4948932;29;20502;-86
2022/04/03 11:06:42;;;;;;;1.50;0.90;;;;;;;;;;4950441;28;20058;-86
2022/04/03 11:09:39;;;;;;;2.13;0.90;;;;;;;;;;4939122;28;20035;-90
2022/04/03 11:13:10;;;;;;;4.68;1.50;;;;;;;;;;4949057;28;20050;-88
2022/04/03 11:16:10;;;;;;;5.55;1.38;;;;;;;;;;4913173;29;20098;-89
2022/04/03 11:19:13;;;;;;;3.75;1.50;;;;;;;;;;4895321;29;20028;-86
2022/04/03 11:21:41;;;;;;;1.85;1.20;;;;;;;;;;4888300;29;20232;-89
2022/04/03 11:24:11;;;;;;;2.25;1.23;;;;;;;;;;4909573;29;20032;-86
2022/04/03 11:26:46;;;;;;;2.10;1.30;;;;;;;;;;4897808;29;21813;-87
2022/04/03 11:29:41;;;;;;;2.00;1.10;;;;;;;;;;4906629;29;20035;-92
2022/04/03 11:32:54;;;;;;;;;;;;;;;;;;;;;
2022/04/03 11:35:40;;;;;;;4.65;1.75;;;;;;;;;;4907424;29;20110;-89
2022/04/03 11:38:11;;;;;;;3.30;1.88;;;;;;;;;;4910921;29;20055;-85
2022/04/03 11:41:13;;;;;;;2.72;1.67;;;;;;;;;;4894886;29;20087;-85
2022/04/03 11:43:45;;;;;;;5.70;2.10;;;;;;;;;;4886682;29;20043;-86
2022/04/03 11:49:57;;;;;;;;;;;;;;;;;;;;;
2022/04/03 11:52:45;;;;;;;;;;;;;;;;;;4891549;29;20048;-90
2022/04/03 11:55:48;;;;;;;3.10;2.15;;;;;;;;;;4895627;29;19915;-90
2022/04/03 11:58:45;;;;;;;3.93;1.90;;;;;;;;;;4949540;28;20387;-88
2022/04/03 12:08:15;;;;;;;5.40;1.70;;;;;;;;;;5113769;23;20038;-84
2022/04/03 12:14:25;;;;;;;3.38;1.30;;;;;;;;;;4924389;29;20047;-90
2022/04/03 12:17:32;;;;;;;;;;;;;;;;;;;;;
2022/04/03 12:20:22;;;;;;;2.05;1.30;;;;;;;;;;4923245;29;20701;-88
2022/04/03 12:23:48;;;;;;;3.55;1.38;;;;;;;;;;4929548;29;20039;-87
2022/04/03 12:26:20;;;;;;;6.57;1.35;;;;;;;;;;4901657;29;20036;-92
2022/04/03 12:32:51;;;;;;;4.43;1.58;;;;;;;;;;4926294;28;20031;-85
2022/04/03 12:35:20;;;;;;;2.13;1.17;;;;;;;;;;4912848;29;20055;-88
2022/04/03 12:37:52;;;;;;;1.90;1.30;;;;;;;;;;4917584;29;20043;-87
2022/04/03 12:40:26;;;;;;;2.55;1.40;;;;;;;;;;4910140;29;20048;-87
2022/04/03 12:43:22;;;;;;;2.50;1.30;;;;;;;;;;4908571;29;20051;-88
2022/04/03 12:46:24;;;;;;;3.17;1.52;;;;;;;;;;4955657;28;20042;-89
2022/04/03 12:48:52;;;;;;;2.72;1.40;;;;;;;;;;4909176;29;20095;-88
2022/04/03 12:51:23;;;;;;;2.80;1.77;;;;;;;;;;4929767;29;20031;-87
2022/04/03 12:53:59;;;;;;;4.00;1.90;;;;;;;;;;4931498;29;20138;-89
2022/04/03 12:58:24;;;;;;;2.65;1.67;;;;;;;;;;4926726;29;20145;-86
2022/04/03 12:59:25;;;;;;;3.00;1.63;;;;;;;;;;4942287;28;20043;-87
2022/04/03 13:01:58;;;;;;;4.20;1.50;;;;;;;;;;4926145;28;20512;-89
2022/04/03 13:05:08;;;;;;;;;;;;;;;;;;;;;
2022/04/03 13:08:26;;;;;;;2.65;1.00;;;;;;;;;;4864452;29;20056;-90
2022/04/03 13:11:29;;;;;;;1.73;1.15;;;;;;;;;;4874538;29;20044;-84
2022/04/03 13:14:35;;;;;;;1.77;0.98;;;;;;;;;;4857851;29;20111;-89
2022/04/03 13:17:26;;;;;;;1.40;0.90;;;;;;;;;;4850594;29;20042;-88
2022/04/03 13:23:01;;;;;;;3.92;1.20;;;;;;;;;;4869379;29;20381;-87
2022/04/03 13:25:32;;;;;;;2.47;1.13;;;;;;;;;;4829107;29;20144;-88
2022/04/03 13:31:01;;;;;;;3.08;1.10;;;;;;;;;;4828525;29;20054;-87
2022/04/03 13:33:29;;;;;;;1.52;1.00;;;;;;;;;;4817261;29;20038;-90
2022/04/03 13:36:00;;;;;;;3.05;1.30;;;;;;;;;;4815683;29;20082;-84
2022/04/03 13:38:31;;;;;;;2.65;1.20;;;;;;;;;;4841320;29;20120;-86
2022/04/03 13:41:03;;;;;;;2.80;1.05;;;;;;;;;;4872416;29;20045;-85
2022/04/03 13:43:33;;;;;;;3.25;1.10;;;;;;;;;;4876990;29;20801;-83
2022/04/03 13:46:02;;;;;;;1.40;0.98;;;;;;;;;;4886684;29;20037;-88
2022/04/03 13:48:37;;;;;;;1.63;1.10;;;;;;;;;;4893835;29;20592;-86
2022/04/03 13:51:33;;;;;;;;;;;;;;;;;;;;;
2022/04/03 13:54:18;;;;;;;;;;;;;;;;;;;;;
2022/04/03 13:57:04;;;;;;;2.75;1.40;;;;;;;;;;4923299;29;20043;-86
2022/04/03 13:59:36;;;;;;;4.20;1.77;;;;;;;;;;4942016;29;20043;-88
2022/04/03 14:02:04;;;;;;;2.75;1.70;;;;;;;;;;4949812;28;20046;-85
2022/04/03 14:07:36;;;;;;;2.50;1.60;;;;;;;;;;5040393;23;20201;-82
2022/04/03 14:10:08;;;;;;;3.30;1.83;;;;;;;;;;4966397;28;20034;-88
2022/04/03 14:12:37;;;;;;;3.83;1.70;;;;;;;;;;4964789;28;20105;-87
2022/04/03 14:15:38;;;;;;;2.10;1.45;;;;;;;;;;4967322;28;20030;-90
2022/04/03 14:21:11;;;;;;;2.78;1.30;;;;;;;;;;4968885;28;20086;-87
2022/04/03 14:26:39;;;;;;;2.10;1.48;;;;;;;;;;4985344;28;20050;-90
2022/04/03 14:29:08;;;;;;;3.05;1.30;;;;;;;;;;4966164;28;20046;-83
2022/04/03 14:31:39;;;;;;;2.75;1.35;;;;;;;;;;4965404;28;20042;-85
2022/04/03 14:34:10;;;;;;;1.65;1.10;;;;;;;;;;4969706;28;20551;-85
2022/04/03 14:36:39;;;;;;;2.90;1.50;;;;;;;;;;4968423;28;20212;-88
2022/04/03 14:39:10;;;;;;;3.05;1.10;;;;;;;;;;4969824;28;20031;-83
2022/04/03 14:41:41;;;;;;;4.50;1.15;;;;;;;;;;4967965;28;20089;-83
2022/04/03 14:44:10;;;;;;;4.60;1.30;;;;;;;;;;4967117;28;20054;-86
2022/04/03 14:46:42;;;;;;;2.70;1.30;;;;;;;;;;4964589;28;20039;-87
2022/04/03 14:49:11;;;;;;;3.08;1.33;;;;;;;;;;4966504;28;20031;-87
2022/04/03 14:51:42;;;;;;;2.00;1.35;;;;;;;;;;4964436;28;20042;-87
2022/04/03 14:54:14;;;;;;;2.05;1.33;;;;;;;;;;4968240;28;20471;-89
2022/04/03 14:56:42;;;;;;;2.53;1.35;;;;;;;;;;4967644;28;20093;-84
2022/04/03 14:59:14;;;;;;;3.60;1.20;;;;;;;;;;4967767;28;20685;-87
2022/04/03 15:01:44;;;;;;;1.75;1.00;;;;;;;;;;4965294;28;20102;-84
2022/04/03 15:04:19;;;;;;;2.75;1.45;;;;;;;;;;4969068;28;20050;-84
2022/04/03 15:06:44;;;;;;;3.28;1.27;;;;;;;;;;4950404;28;20038;-87
2022/04/03 15:09:31;;;;;;;3.15;1.30;;;;;;;;;;4945885;28;20035;-83
2022/04/03 15:12:15;;;;;;;2.00;1.42;;;;;;;;;;4944037;28;20518;-86
2022/04/03 15:14:46;;;;;;;2.17;1.15;;;;;;;;;;4948101;28;20081;-84
2022/04/03 15:17:18;;;;;;;2.28;1.30;;;;;;;;;;4960389;28;21647;-87
2022/04/03 15:19:46;;;;;;;3.28;1.20;;;;;;;;;;4944447;29;20816;-86
2022/04/03 15:22:19;;;;;;;1.60;1.15;;;;;;;;;;4943115;28;20519;-87
2022/04/03 15:24:49;;;;;;;4.15;1.42;;;;;;;;;;4945708;29;20028;-85
2022/04/03 15:27:22;;;;;;;2.35;1.38;;;;;;;;;;4946265;29;20592;-83
2022/04/03 15:29:53;;;;;;;3.58;1.40;;;;;;;;;;4942953;28;20755;-85
2022/04/03 15:32:19;;;;;;;1.52;1.10;;;;;;;;;;4944684;29;20035;-88
2022/04/03 15:34:52;;;;;;;3.42;1.15;;;;;;;;;;4956659;28;20043;-89
2022/04/03 15:37:23;;;;;;;1.25;0.95;;;;;;;;;;4944741;29;20058;-88
2022/04/03 15:39:51;;;;;;;1.60;1.23;;;;;;;;;;4942898;28;20721;-88
2022/04/03 15:42:25;;;;;;;2.70;1.10;;;;;;;;;;4957172;28;20456;-85
2022/04/03 15:44:50;;;;;;;2.33;1.30;;;;;;;;;;4942254;29;20038;-85
2022/04/03 15:47:22;;;;;;;2.08;1.20;;;;;;;;;;4944732;29;20493;-88
2022/04/03 15:49:50;;;;;;;2.75;1.20;;;;;;;;;;4952011;28;20031;-86
2022/04/03 15:52:22;;;;;;;2.60;1.80;;;;;;;;;;4944480;29;20823;-90
2022/04/03 15:55:22;;;;;;;2.33;1.50;;;;;;;;;;4945137;29;20028;-87
2022/04/03 15:57:54;;;;;;;2.25;1.60;;;;;;;;;;4943435;29;20035;-89
2022/04/03 16:00:22;;;;;;;3.20;1.67;;;;;;;;;;4942830;28;20083;-84
2022/04/03 16:02:54;;;;;;;2.15;1.40;;;;;;;;;;4959987;28;20388;-86